sensor_id;sensor_type;location;lat;lon;timestamp;pressure;altitude;pressure_sealevel;temperature
78961;BMP280;68362;45.970;12.646;2023-04-25T00:00:46;100592.00;;;11.50
78961;BMP280;68362;45.970;12.646;2023-04-25T00:01:55;100601.31;;;11.46
78961;BMP280;68362;45.970;12.646;2023-04-25T00:02:58;100595.59;;;11.37
78961;BMP280;68362;45.970;12.646;2023-04-25T00:04:02;100599.34;;;11.30
78961;BMP280;68362;45.970;12.646;2023-04-25T00:05:04;100601.56;;;11.45
78961;BMP280;68362;45.970;12.646;2023-04-25T00:06:06;100598.34;;;11.43
78961;BMP280;68362;45.970;12.646;2023-04-25T00:07:09;100592.56;;;11.22
78961;BMP280;68362;45.970;12.646;2023-04-25T00:08:12;100597.81;;;11.22
78961;BMP280;68362;45.970;12.646;2023-04-25T00:09:14;100597.22;;;11.08
78961;BMP280;68362;45.970;12.646;2023-04-25T00:10:16;100600.78;;;11.14
78961;BMP280;68362;45.970;12.646;2023-04-25T00:11:19;100595.91;;;11.18
78961;BMP280;68362;45.970;12.646;2023-04-25T00:12:21;100592.91;;;11.14
78961;BMP280;68362;45.970;12.646;2023-04-25T00:13:25;100597.75;;;10.99
78961;BMP280;68362;45.970;12.646;2023-04-25T00:14:28;100599.53;;;10.86
78961;BMP280;68362;45.970;12.646;2023-04-25T00:15:30;100588.47;;;10.96
78961;BMP280;68362;45.970;12.646;2023-04-25T00:16:32;100594.38;;;11.10
78961;BMP280;68362;45.970;12.646;2023-04-25T00:17:36;100593.50;;;11.28
78961;BMP280;68362;45.970;12.646;2023-04-25T00:18:41;100593.06;;;11.31
78961;BMP280;68362;45.970;12.646;2023-04-25T00:19:44;100586.88;;;11.25
78961;BMP280;68362;45.970;12.646;2023-04-25T00:20:48;100590.09;;;11.27
78961;BMP280;68362;45.970;12.646;2023-04-25T00:21:50;100590.31;;;11.26
78961;BMP280;68362;45.970;12.646;2023-04-25T00:22:52;100594.44;;;11.33
78961;BMP280;68362;45.970;12.646;2023-04-25T00:23:55;100589.19;;;11.33
78961;BMP280;68362;45.970;12.646;2023-04-25T00:24:57;100599.03;;;11.26
78961;BMP280;68362;45.970;12.646;2023-04-25T00:26:02;100598.78;;;11.39
78961;BMP280;68362;45.970;12.646;2023-04-25T00:27:04;100600.41;;;11.40
78961;BMP280;68362;45.970;12.646;2023-04-25T00:28:06;100597.56;;;11.42
78961;BMP280;68362;45.970;12.646;2023-04-25T00:29:08;100598.44;;;11.24
78961;BMP280;68362;45.970;12.646;2023-04-25T00:30:11;100590.03;;;11.16
78961;BMP280;68362;45.970;12.646;2023-04-25T00:31:13;100598.53;;;11.18
78961;BMP280;68362;45.970;12.646;2023-04-25T00:32:16;100599.81;;;10.97
78961;BMP280;68362;45.970;12.646;2023-04-25T00:33:18;100596.59;;;10.95
78961;BMP280;68362;45.970;12.646;2023-04-25T00:34:20;100594.16;;;10.63
78961;BMP280;68362;45.970;12.646;2023-04-25T00:35:22;100592.00;;;10.72
78961;BMP280;68362;45.970;12.646;2023-04-25T00:36:24;100597.59;;;10.82
78961;BMP280;68362;45.970;12.646;2023-04-25T00:37:26;100594.81;;;10.58
78961;BMP280;68362;45.970;12.646;2023-04-25T00:38:28;100592.16;;;10.40
78961;BMP280;68362;45.970;12.646;2023-04-25T00:39:30;100596.78;;;10.45
78961;BMP280;68362;45.970;12.646;2023-04-25T00:40:33;100591.44;;;10.33
78961;BMP280;68362;45.970;12.646;2023-04-25T00:41:35;100595.31;;;10.49
78961;BMP280;68362;45.970;12.646;2023-04-25T00:42:37;100588.75;;;10.76
78961;BMP280;68362;45.970;12.646;2023-04-25T00:43:40;100592.97;;;10.59
78961;BMP280;68362;45.970;12.646;2023-04-25T00:44:43;100592.94;;;10.22
78961;BMP280;68362;45.970;12.646;2023-04-25T00:45:47;100593.47;;;10.13
78961;BMP280;68362;45.970;12.646;2023-04-25T00:46:50;100593.78;;;9.98
78961;BMP280;68362;45.970;12.646;2023-04-25T00:47:52;100588.81;;;9.90
78961;BMP280;68362;45.970;12.646;2023-04-25T00:48:54;100593.03;;;9.91
78961;BMP280;68362;45.970;12.646;2023-04-25T00:49:56;100594.47;;;9.87
78961;BMP280;68362;45.970;12.646;2023-04-25T00:50:59;100588.88;;;9.83
78961;BMP280;68362;45.970;12.646;2023-04-25T00:52:01;100595.53;;;9.86
78961;BMP280;68362;45.970;12.646;2023-04-25T00:53:04;100590.13;;;10.24
78961;BMP280;68362;45.970;12.646;2023-04-25T00:54:06;100592.22;;;10.33
78961;BMP280;68362;45.970;12.646;2023-04-25T00:55:09;100595.25;;;10.37
78961;BMP280;68362;45.970;12.646;2023-04-25T00:56:12;100594.16;;;10.45
78961;BMP280;68362;45.970;12.646;2023-04-25T00:57:14;100591.63;;;10.56
78961;BMP280;68362;45.970;12.646;2023-04-25T00:58:17;100594.16;;;10.45
78961;BMP280;68362;45.970;12.646;2023-04-25T00:59:19;100598.97;;;10.48
78961;BMP280;68362;45.970;12.646;2023-04-25T01:00:22;100591.81;;;10.55
78961;BMP280;68362;45.970;12.646;2023-04-25T01:01:24;100588.91;;;10.63
78961;BMP280;68362;45.970;12.646;2023-04-25T01:02:27;100592.19;;;10.58
78961;BMP280;68362;45.970;12.646;2023-04-25T01:03:32;100589.06;;;10.50
78961;BMP280;68362;45.970;12.646;2023-04-25T01:04:37;100596.91;;;10.31
78961;BMP280;68362;45.970;12.646;2023-04-25T01:05:41;100588.38;;;10.36
78961;BMP280;68362;45.970;12.646;2023-04-25T01:06:43;100589.19;;;10.37
78961;BMP280;68362;45.970;12.646;2023-04-25T01:07:45;100591.28;;;10.28
78961;BMP280;68362;45.970;12.646;2023-04-25T01:08:48;100593.09;;;10.46
78961;BMP280;68362;45.970;12.646;2023-04-25T01:09:51;100595.38;;;10.24
78961;BMP280;68362;45.970;12.646;2023-04-25T01:10:53;100592.69;;;10.30
78961;BMP280;68362;45.970;12.646;2023-04-25T01:11:56;100587.94;;;10.39
78961;BMP280;68362;45.970;12.646;2023-04-25T01:12:59;100593.56;;;10.43
78961;BMP280;68362;45.970;12.646;2023-04-25T01:14:01;100595.31;;;10.30
78961;BMP280;68362;45.970;12.646;2023-04-25T01:15:04;100591.81;;;10.37
78961;BMP280;68362;45.970;12.646;2023-04-25T01:16:06;100589.34;;;10.23
78961;BMP280;68362;45.970;12.646;2023-04-25T01:17:09;100587.97;;;10.14
78961;BMP280;68362;45.970;12.646;2023-04-25T01:18:12;100591.91;;;10.05
78961;BMP280;68362;45.970;12.646;2023-04-25T01:19:16;100592.72;;;10.05
78961;BMP280;68362;45.970;12.646;2023-04-25T01:20:21;100585.97;;;10.16
78961;BMP280;68362;45.970;12.646;2023-04-25T01:21:24;100582.44;;;10.04
78961;BMP280;68362;45.970;12.646;2023-04-25T01:22:29;100583.25;;;10.23
78961;BMP280;68362;45.970;12.646;2023-04-25T01:23:31;100587.28;;;10.25
78961;BMP280;68362;45.970;12.646;2023-04-25T01:24:35;100590.25;;;10.11
78961;BMP280;68362;45.970;12.646;2023-04-25T01:25:37;100583.00;;;10.31
78961;BMP280;68362;45.970;12.646;2023-04-25T01:26:41;100584.59;;;10.32
78961;BMP280;68362;45.970;12.646;2023-04-25T01:27:47;100592.09;;;10.28
78961;BMP280;68362;45.970;12.646;2023-04-25T01:28:49;100586.97;;;10.15
78961;BMP280;68362;45.970;12.646;2023-04-25T01:29:51;100588.44;;;9.86
78961;BMP280;68362;45.970;12.646;2023-04-25T01:30:54;100589.44;;;9.60
78961;BMP280;68362;45.970;12.646;2023-04-25T01:31:57;100590.44;;;9.27
78961;BMP280;68362;45.970;12.646;2023-04-25T01:33:00;100597.06;;;9.37
78961;BMP280;68362;45.970;12.646;2023-04-25T01:34:02;100593.03;;;9.34
78961;BMP280;68362;45.970;12.646;2023-04-25T01:35:06;100591.38;;;9.40
78961;BMP280;68362;45.970;12.646;2023-04-25T01:36:12;100596.84;;;9.38
78961;BMP280;68362;45.970;12.646;2023-04-25T01:37:16;100598.22;;;9.72
78961;BMP280;68362;45.970;12.646;2023-04-25T01:38:18;100601.38;;;9.81
78961;BMP280;68362;45.970;12.646;2023-04-25T01:39:21;100594.06;;;9.90
78961;BMP280;68362;45.970;12.646;2023-04-25T01:40:24;100592.22;;;9.34
78961;BMP280;68362;45.970;12.646;2023-04-25T01:41:27;100591.13;;;9.48
78961;BMP280;68362;45.970;12.646;2023-04-25T01:42:29;100596.97;;;9.75
78961;BMP280;68362;45.970;12.646;2023-04-25T01:43:31;100591.63;;;9.63
78961;BMP280;68362;45.970;12.646;2023-04-25T01:44:33;100590.56;;;9.39
78961;BMP280;68362;45.970;12.646;2023-04-25T01:45:35;100587.78;;;9.66
78961;BMP280;68362;45.970;12.646;2023-04-25T01:46:38;100589.97;;;9.69
78961;BMP280;68362;45.970;12.646;2023-04-25T01:47:40;100592.72;;;9.49
78961;BMP280;68362;45.970;12.646;2023-04-25T01:48:44;100589.50;;;9.47
78961;BMP280;68362;45.970;12.646;2023-04-25T01:49:47;100581.94;;;9.32
78961;BMP280;68362;45.970;12.646;2023-04-25T01:50:49;100586.88;;;9.53
78961;BMP280;68362;45.970;12.646;2023-04-25T01:51:51;100584.63;;;9.57
78961;BMP280;68362;45.970;12.646;2023-04-25T01:52:53;100585.38;;;9.64
78961;BMP280;68362;45.970;12.646;2023-04-25T01:53:56;100587.78;;;9.66
78961;BMP280;68362;45.970;12.646;2023-04-25T01:55:02;100589.75;;;9.70
78961;BMP280;68362;45.970;12.646;2023-04-25T01:56:04;100593.81;;;9.66
78961;BMP280;68362;45.970;12.646;2023-04-25T01:57:06;100596.94;;;9.57
78961;BMP280;68362;45.970;12.646;2023-04-25T01:58:09;100594.22;;;9.32
78961;BMP280;68362;45.970;12.646;2023-04-25T01:59:11;100591.31;;;9.53
78961;BMP280;68362;45.970;12.646;2023-04-25T02:00:14;100597.91;;;9.62
78961;BMP280;68362;45.970;12.646;2023-04-25T02:01:16;100585.53;;;9.44
78961;BMP280;68362;45.970;12.646;2023-04-25T02:02:17;100588.41;;;9.36
78961;BMP280;68362;45.970;12.646;2023-04-25T02:03:20;100584.56;;;9.00
78961;BMP280;68362;45.970;12.646;2023-04-25T02:04:22;100586.13;;;9.40
78961;BMP280;68362;45.970;12.646;2023-04-25T02:05:24;100588.44;;;9.29
78961;BMP280;68362;45.970;12.646;2023-04-25T02:06:26;100584.94;;;9.42
78961;BMP280;68362;45.970;12.646;2023-04-25T02:07:28;100587.84;;;9.52
78961;BMP280;68362;45.970;12.646;2023-04-25T02:08:31;100578.69;;;9.68
78961;BMP280;68362;45.970;12.646;2023-04-25T02:09:33;100581.78;;;9.59
78961;BMP280;68362;45.970;12.646;2023-04-25T02:10:35;100575.41;;;9.48
78961;BMP280;68362;45.970;12.646;2023-04-25T02:11:37;100575.72;;;9.65
78961;BMP280;68362;45.970;12.646;2023-04-25T02:12:39;100578.69;;;9.68
78961;BMP280;68362;45.970;12.646;2023-04-25T02:13:41;100574.31;;;9.31
78961;BMP280;68362;45.970;12.646;2023-04-25T02:14:43;100574.78;;;9.14
78961;BMP280;68362;45.970;12.646;2023-04-25T02:15:45;100570.38;;;9.15
78961;BMP280;68362;45.970;12.646;2023-04-25T02:16:48;100566.63;;;8.91
78961;BMP280;68362;45.970;12.646;2023-04-25T02:17:50;100565.22;;;8.88
78961;BMP280;68362;45.970;12.646;2023-04-25T02:18:54;100557.72;;;9.05
78961;BMP280;68362;45.970;12.646;2023-04-25T02:19:56;100562.94;;;9.05
78961;BMP280;68362;45.970;12.646;2023-04-25T02:20:59;100559.03;;;8.83
78961;BMP280;68362;45.970;12.646;2023-04-25T02:22:01;100562.91;;;9.12
78961;BMP280;68362;45.970;12.646;2023-04-25T02:23:03;100564.81;;;9.36
78961;BMP280;68362;45.970;12.646;2023-04-25T02:24:06;100563.59;;;9.39
78961;BMP280;68362;45.970;12.646;2023-04-25T02:25:08;100560.19;;;9.32
78961;BMP280;68362;45.970;12.646;2023-04-25T02:26:11;100553.94;;;9.01
78961;BMP280;68362;45.970;12.646;2023-04-25T02:27:13;100554.69;;;9.08
78961;BMP280;68362;45.970;12.646;2023-04-25T02:28:15;100562.41;;;8.90
78961;BMP280;68362;45.970;12.646;2023-04-25T02:29:17;100565.00;;;8.96
78961;BMP280;68362;45.970;12.646;2023-04-25T02:30:19;100556.34;;;8.96
78961;BMP280;68362;45.970;12.646;2023-04-25T02:31:21;100562.78;;;9.00
78961;BMP280;68362;45.970;12.646;2023-04-25T02:32:23;100558.56;;;8.99
78961;BMP280;68362;45.970;12.646;2023-04-25T02:33:26;100554.22;;;8.86
78961;BMP280;68362;45.970;12.646;2023-04-25T02:34:27;100560.41;;;8.92
78961;BMP280;68362;45.970;12.646;2023-04-25T02:35:29;100558.47;;;8.81
78961;BMP280;68362;45.970;12.646;2023-04-25T02:36:32;100557.94;;;9.03
78961;BMP280;68362;45.970;12.646;2023-04-25T02:37:37;100568.19;;;9.05
78961;BMP280;68362;45.970;12.646;2023-04-25T02:38:39;100565.50;;;9.18
78961;BMP280;68362;45.970;12.646;2023-04-25T02:39:41;100560.78;;;9.34
78961;BMP280;68362;45.970;12.646;2023-04-25T02:40:43;100565.41;;;9.32
78961;BMP280;68362;45.970;12.646;2023-04-25T02:41:45;100561.97;;;9.06
78961;BMP280;68362;45.970;12.646;2023-04-25T02:42:47;100564.25;;;9.27
78961;BMP280;68362;45.970;12.646;2023-04-25T02:43:49;100557.00;;;9.29
78961;BMP280;68362;45.970;12.646;2023-04-25T02:44:52;100563.41;;;9.34
78961;BMP280;68362;45.970;12.646;2023-04-25T02:45:54;100553.84;;;9.21
78961;BMP280;68362;45.970;12.646;2023-04-25T02:46:56;100555.16;;;9.37
78961;BMP280;68362;45.970;12.646;2023-04-25T02:47:58;100556.03;;;8.86
78961;BMP280;68362;45.970;12.646;2023-04-25T02:49:00;100559.09;;;9.14
78961;BMP280;68362;45.970;12.646;2023-04-25T02:50:03;100563.06;;;9.23
78961;BMP280;68362;45.970;12.646;2023-04-25T02:51:05;100565.41;;;9.38
78961;BMP280;68362;45.970;12.646;2023-04-25T02:52:07;100561.75;;;9.39
78961;BMP280;68362;45.970;12.646;2023-04-25T02:53:09;100561.47;;;9.22
78961;BMP280;68362;45.970;12.646;2023-04-25T02:54:12;100563.13;;;9.10
78961;BMP280;68362;45.970;12.646;2023-04-25T02:55:14;100561.59;;;8.96
78961;BMP280;68362;45.970;12.646;2023-04-25T02:56:16;100566.72;;;9.22
78961;BMP280;68362;45.970;12.646;2023-04-25T02:57:18;100557.06;;;9.16
78961;BMP280;68362;45.970;12.646;2023-04-25T02:58:20;100563.56;;;9.07
78961;BMP280;68362;45.970;12.646;2023-04-25T02:59:22;100564.81;;;8.98
78961;BMP280;68362;45.970;12.646;2023-04-25T03:00:24;100561.97;;;8.99
78961;BMP280;68362;45.970;12.646;2023-04-25T03:01:26;100562.19;;;8.98
78961;BMP280;68362;45.970;12.646;2023-04-25T03:02:29;100551.91;;;9.03
78961;BMP280;68362;45.970;12.646;2023-04-25T03:03:31;100557.66;;;9.18
78961;BMP280;68362;45.970;12.646;2023-04-25T03:04:33;100555.03;;;9.18
78961;BMP280;68362;45.970;12.646;2023-04-25T03:05:35;100555.72;;;9.07
78961;BMP280;68362;45.970;12.646;2023-04-25T03:06:38;100557.66;;;8.80
78961;BMP280;68362;45.970;12.646;2023-04-25T03:07:40;100569.75;;;8.61
78961;BMP280;68362;45.970;12.646;2023-04-25T03:08:42;100567.88;;;8.82
78961;BMP280;68362;45.970;12.646;2023-04-25T03:09:44;100561.00;;;9.00
78961;BMP280;68362;45.970;12.646;2023-04-25T03:10:47;100558.66;;;9.17
78961;BMP280;68362;45.970;12.646;2023-04-25T03:11:49;100558.25;;;9.20
78961;BMP280;68362;45.970;12.646;2023-04-25T03:12:51;100560.97;;;9.39
78961;BMP280;68362;45.970;12.646;2023-04-25T03:13:53;100558.81;;;9.29
78961;BMP280;68362;45.970;12.646;2023-04-25T03:14:56;100548.88;;;9.38
78961;BMP280;68362;45.970;12.646;2023-04-25T03:15:58;100551.78;;;9.54
78961;BMP280;68362;45.970;12.646;2023-04-25T03:17:00;100545.56;;;9.49
78961;BMP280;68362;45.970;12.646;2023-04-25T03:18:02;100547.50;;;9.60
78961;BMP280;68362;45.970;12.646;2023-04-25T03:19:05;100544.47;;;9.32
78961;BMP280;68362;45.970;12.646;2023-04-25T03:20:07;100549.97;;;9.23
78961;BMP280;68362;45.970;12.646;2023-04-25T03:21:10;100556.19;;;9.29
78961;BMP280;68362;45.970;12.646;2023-04-25T03:22:12;100545.53;;;9.31
78961;BMP280;68362;45.970;12.646;2023-04-25T03:23:14;100548.91;;;9.31
78961;BMP280;68362;45.970;12.646;2023-04-25T03:24:16;100547.75;;;9.27
78961;BMP280;68362;45.970;12.646;2023-04-25T03:25:18;100544.06;;;9.03
78961;BMP280;68362;45.970;12.646;2023-04-25T03:26:20;100549.03;;;9.11
78961;BMP280;68362;45.970;12.646;2023-04-25T03:27:22;100541.84;;;9.00
78961;BMP280;68362;45.970;12.646;2023-04-25T03:28:24;100552.59;;;9.23
78961;BMP280;68362;45.970;12.646;2023-04-25T03:29:27;100546.41;;;9.11
78961;BMP280;68362;45.970;12.646;2023-04-25T03:30:30;100542.84;;;8.99
78961;BMP280;68362;45.970;12.646;2023-04-25T03:31:32;100547.06;;;9.00
78961;BMP280;68362;45.970;12.646;2023-04-25T03:32:35;100545.69;;;8.97
78961;BMP280;68362;45.970;12.646;2023-04-25T03:33:37;100553.47;;;8.66
78961;BMP280;68362;45.970;12.646;2023-04-25T03:34:39;100541.97;;;8.67
78961;BMP280;68362;45.970;12.646;2023-04-25T03:35:42;100542.00;;;9.05
78961;BMP280;68362;45.970;12.646;2023-04-25T03:36:44;100554.34;;;8.98
78961;BMP280;68362;45.970;12.646;2023-04-25T03:37:46;100543.53;;;8.88
78961;BMP280;68362;45.970;12.646;2023-04-25T03:38:48;100550.47;;;8.62
78961;BMP280;68362;45.970;12.646;2023-04-25T03:39:50;100553.84;;;8.69
78961;BMP280;68362;45.970;12.646;2023-04-25T03:40:53;100550.03;;;8.59
78961;BMP280;68362;45.970;12.646;2023-04-25T03:41:55;100556.81;;;8.86
78961;BMP280;68362;45.970;12.646;2023-04-25T03:42:57;100544.38;;;8.75
78961;BMP280;68362;45.970;12.646;2023-04-25T03:43:59;100553.47;;;8.59
78961;BMP280;68362;45.970;12.646;2023-04-25T03:45:01;100548.44;;;8.64
78961;BMP280;68362;45.970;12.646;2023-04-25T03:46:04;100553.56;;;8.91
78961;BMP280;68362;45.970;12.646;2023-04-25T03:47:06;100550.31;;;9.02
78961;BMP280;68362;45.970;12.646;2023-04-25T03:48:08;100549.59;;;9.20
78961;BMP280;68362;45.970;12.646;2023-04-25T03:49:10;100551.84;;;9.16
78961;BMP280;68362;45.970;12.646;2023-04-25T03:50:12;100550.50;;;9.32
78961;BMP280;68362;45.970;12.646;2023-04-25T03:51:14;100559.03;;;9.27
78961;BMP280;68362;45.970;12.646;2023-04-25T03:52:18;100556.00;;;9.24
78961;BMP280;68362;45.970;12.646;2023-04-25T03:53:20;100550.72;;;8.99
78961;BMP280;68362;45.970;12.646;2023-04-25T03:54:22;100555.03;;;9.18
78961;BMP280;68362;45.970;12.646;2023-04-25T03:55:24;100548.47;;;9.09
78961;BMP280;68362;45.970;12.646;2023-04-25T03:56:26;100554.03;;;9.19
78961;BMP280;68362;45.970;12.646;2023-04-25T03:57:28;100558.00;;;9.28
78961;BMP280;68362;45.970;12.646;2023-04-25T03:58:30;100559.16;;;9.39
78961;BMP280;68362;45.970;12.646;2023-04-25T03:59:32;100556.00;;;9.24
78961;BMP280;68362;45.970;12.646;2023-04-25T04:00:35;100550.09;;;9.35
78961;BMP280;68362;45.970;12.646;2023-04-25T04:01:37;100559.06;;;9.21
78961;BMP280;68362;45.970;12.646;2023-04-25T04:02:39;100551.34;;;9.26
78961;BMP280;68362;45.970;12.646;2023-04-25T04:03:45;100558.66;;;9.17
78961;BMP280;68362;45.970;12.646;2023-04-25T04:04:47;100554.00;;;8.88
78961;BMP280;68362;45.970;12.646;2023-04-25T04:05:50;100559.03;;;8.83
78961;BMP280;68362;45.970;12.646;2023-04-25T04:06:52;100558.38;;;8.94
78961;BMP280;68362;45.970;12.646;2023-04-25T04:07:57;100555.81;;;8.87
78961;BMP280;68362;45.970;12.646;2023-04-25T04:08:59;100556.66;;;8.74
78961;BMP280;68362;45.970;12.646;2023-04-25T04:10:01;100552.16;;;8.95
78961;BMP280;68362;45.970;12.646;2023-04-25T04:11:04;100552.31;;;9.00
78961;BMP280;68362;45.970;12.646;2023-04-25T04:12:06;100548.00;;;8.81
78961;BMP280;68362;45.970;12.646;2023-04-25T04:13:08;100547.59;;;8.77
78961;BMP280;68362;45.970;12.646;2023-04-25T04:14:10;100547.91;;;9.00
78961;BMP280;68362;45.970;12.646;2023-04-25T04:15:12;100553.00;;;9.20
78961;BMP280;68362;45.970;12.646;2023-04-25T04:16:14;100549.25;;;9.10
78961;BMP280;68362;45.970;12.646;2023-04-25T04:17:17;100550.38;;;9.20
78961;BMP280;68362;45.970;12.646;2023-04-25T04:18:19;100553.66;;;9.16
78961;BMP280;68362;45.970;12.646;2023-04-25T04:19:21;100548.56;;;9.27
78961;BMP280;68362;45.970;12.646;2023-04-25T04:20:23;100560.94;;;9.07
78961;BMP280;68362;45.970;12.646;2023-04-25T04:21:25;100557.34;;;9.01
78961;BMP280;68362;45.970;12.646;2023-04-25T04:22:28;100561.41;;;8.97
78961;BMP280;68362;45.970;12.646;2023-04-25T04:23:30;100563.78;;;8.99
78961;BMP280;68362;45.970;12.646;2023-04-25T04:24:32;100567.78;;;8.57
78961;BMP280;68362;45.970;12.646;2023-04-25T04:25:35;100563.25;;;8.84
78961;BMP280;68362;45.970;12.646;2023-04-25T04:26:37;100567.19;;;9.06
78961;BMP280;68362;45.970;12.646;2023-04-25T04:27:40;100553.41;;;9.17
78961;BMP280;68362;45.970;12.646;2023-04-25T04:28:45;100550.75;;;9.31
78961;BMP280;68362;45.970;12.646;2023-04-25T04:29:48;100544.63;;;9.05
78961;BMP280;68362;45.970;12.646;2023-04-25T04:30:50;100552.31;;;9.00
78961;BMP280;68362;45.970;12.646;2023-04-25T04:31:54;100553.59;;;8.84
78961;BMP280;68362;45.970;12.646;2023-04-25T04:32:56;100555.94;;;8.99
78961;BMP280;68362;45.970;12.646;2023-04-25T04:33:59;100549.47;;;9.08
78961;BMP280;68362;45.970;12.646;2023-04-25T04:35:00;100549.88;;;9.05
78961;BMP280;68362;45.970;12.646;2023-04-25T04:36:03;100555.59;;;8.89
78961;BMP280;68362;45.970;12.646;2023-04-25T04:37:05;100548.00;;;8.81
78961;BMP280;68362;45.970;12.646;2023-04-25T04:38:09;100547.44;;;9.10
78961;BMP280;68362;45.970;12.646;2023-04-25T04:39:12;100551.03;;;9.16
78961;BMP280;68362;45.970;12.646;2023-04-25T04:40:15;100549.81;;;9.18
78961;BMP280;68362;45.970;12.646;2023-04-25T04:41:17;100545.75;;;9.22
78961;BMP280;68362;45.970;12.646;2023-04-25T04:42:21;100548.09;;;8.99
78961;BMP280;68362;45.970;12.646;2023-04-25T04:43:23;100539.03;;;9.01
78961;BMP280;68362;45.970;12.646;2023-04-25T04:44:25;100551.06;;;9.02
78961;BMP280;68362;45.970;12.646;2023-04-25T04:45:28;100557.94;;;8.97
78961;BMP280;68362;45.970;12.646;2023-04-25T04:46:30;100546.84;;;9.08
78961;BMP280;68362;45.970;12.646;2023-04-25T04:47:33;100549.34;;;9.28
78961;BMP280;68362;45.970;12.646;2023-04-25T04:48:35;100551.47;;;9.44
78961;BMP280;68362;45.970;12.646;2023-04-25T04:49:38;100552.00;;;9.53
78961;BMP280;68362;45.970;12.646;2023-04-25T04:50:40;100554.50;;;9.66
78961;BMP280;68362;45.970;12.646;2023-04-25T04:51:42;100556.47;;;9.77
78961;BMP280;68362;45.970;12.646;2023-04-25T04:52:46;100553.59;;;9.54
78961;BMP280;68362;45.970;12.646;2023-04-25T04:53:48;100559.16;;;9.64
78961;BMP280;68362;45.970;12.646;2023-04-25T04:54:50;100556.09;;;9.74
78961;BMP280;68362;45.970;12.646;2023-04-25T04:55:53;100551.47;;;9.69
78961;BMP280;68362;45.970;12.646;2023-04-25T04:56:54;100561.25;;;9.55
78961;BMP280;68362;45.970;12.646;2023-04-25T04:57:57;100551.59;;;9.56
78961;BMP280;68362;45.970;12.646;2023-04-25T04:58:59;100561.53;;;9.72
78961;BMP280;68362;45.970;12.646;2023-04-25T05:00:01;100556.72;;;9.69
78961;BMP280;68362;45.970;12.646;2023-04-25T05:01:06;100563.38;;;9.72
78961;BMP280;68362;45.970;12.646;2023-04-25T05:02:09;100563.00;;;9.87
78961;BMP280;68362;45.970;12.646;2023-04-25T05:03:11;100564.31;;;9.77
78961;BMP280;68362;45.970;12.646;2023-04-25T05:04:14;100555.75;;;9.89
78961;BMP280;68362;45.970;12.646;2023-04-25T05:05:16;100564.50;;;10.01
78961;BMP280;68362;45.970;12.646;2023-04-25T05:06:18;100563.00;;;9.87
78961;BMP280;68362;45.970;12.646;2023-04-25T05:07:21;100561.25;;;9.80
78961;BMP280;68362;45.970;12.646;2023-04-25T05:08:23;100560.09;;;9.76
78961;BMP280;68362;45.970;12.646;2023-04-25T05:09:24;100550.91;;;9.92
78961;BMP280;68362;45.970;12.646;2023-04-25T05:10:27;100555.09;;;9.93
78961;BMP280;68362;45.970;12.646;2023-04-25T05:11:29;100547.13;;;9.81
78961;BMP280;68362;45.970;12.646;2023-04-25T05:12:31;100550.81;;;9.99
78961;BMP280;68362;45.970;12.646;2023-04-25T05:13:35;100545.50;;;10.05
78961;BMP280;68362;45.970;12.646;2023-04-25T05:14:38;100551.59;;;10.06
78961;BMP280;68362;45.970;12.646;2023-04-25T05:15:40;100548.28;;;9.92
78961;BMP280;68362;45.970;12.646;2023-04-25T05:16:42;100561.47;;;10.04
78961;BMP280;68362;45.970;12.646;2023-04-25T05:17:44;100562.84;;;10.06
78961;BMP280;68362;45.970;12.646;2023-04-25T05:18:46;100559.72;;;10.16
78961;BMP280;68362;45.970;12.646;2023-04-25T05:19:49;100556.84;;;10.06
78961;BMP280;68362;45.970;12.646;2023-04-25T05:20:51;100560.19;;;10.31
78961;BMP280;68362;45.970;12.646;2023-04-25T05:21:52;100556.38;;;10.46
78961;BMP280;68362;45.970;12.646;2023-04-25T05:22:55;100561.31;;;10.17
78961;BMP280;68362;45.970;12.646;2023-04-25T05:23:57;100564.28;;;10.02
78961;BMP280;68362;45.970;12.646;2023-04-25T05:24:59;100556.63;;;9.83
78961;BMP280;68362;45.970;12.646;2023-04-25T05:26:01;100563.38;;;9.72
78961;BMP280;68362;45.970;12.646;2023-04-25T05:27:03;100564.75;;;9.74
78961;BMP280;68362;45.970;12.646;2023-04-25T05:28:05;100556.91;;;9.93
78961;BMP280;68362;45.970;12.646;2023-04-25T05:29:07;100561.72;;;9.96
78961;BMP280;68362;45.970;12.646;2023-04-25T05:30:09;100561.72;;;10.21
78961;BMP280;68362;45.970;12.646;2023-04-25T05:31:12;100560.41;;;10.12
78961;BMP280;68362;45.970;12.646;2023-04-25T05:32:14;100562.81;;;10.31
78961;BMP280;68362;45.970;12.646;2023-04-25T05:33:16;100554.63;;;10.21
78961;BMP280;68362;45.970;12.646;2023-04-25T05:34:18;100559.88;;;10.21
78961;BMP280;68362;45.970;12.646;2023-04-25T05:35:21;100557.00;;;10.29
78961;BMP280;68362;45.970;12.646;2023-04-25T05:36:23;100554.38;;;10.29
78961;BMP280;68362;45.970;12.646;2023-04-25T05:37:25;100552.00;;;10.40
78961;BMP280;68362;45.970;12.646;2023-04-25T05:38:27;100560.41;;;10.12
78961;BMP280;68362;45.970;12.646;2023-04-25T05:39:29;100552.00;;;10.03
78961;BMP280;68362;45.970;12.646;2023-04-25T05:40:31;100556.72;;;9.94
78961;BMP280;68362;45.970;12.646;2023-04-25T05:41:33;100559.94;;;9.71
78961;BMP280;68362;45.970;12.646;2023-04-25T05:42:35;100565.66;;;9.62
78961;BMP280;68362;45.970;12.646;2023-04-25T05:43:38;100560.69;;;9.47
78961;BMP280;68362;45.970;12.646;2023-04-25T05:44:40;100567.22;;;9.38
78961;BMP280;68362;45.970;12.646;2023-04-25T05:45:42;100560.84;;;9.27
78961;BMP280;68362;45.970;12.646;2023-04-25T05:46:44;100573.00;;;9.15
78961;BMP280;68362;45.970;12.646;2023-04-25T05:47:46;100569.69;;;9.26
78961;BMP280;68362;45.970;12.646;2023-04-25T05:48:48;100571.47;;;9.32
78961;BMP280;68362;45.970;12.646;2023-04-25T05:49:50;100573.41;;;9.50
78961;BMP280;68362;45.970;12.646;2023-04-25T05:50:52;100574.63;;;9.47
78961;BMP280;68362;45.970;12.646;2023-04-25T05:51:54;100566.03;;;9.34
78961;BMP280;68362;45.970;12.646;2023-04-25T05:52:56;100568.88;;;9.25
78961;BMP280;68362;45.970;12.646;2023-04-25T05:53:58;100568.53;;;9.53